Latest Weather Observations for Burketown Airport

IDQ60801

Issued at 1:05 pm EST Wednesday 30 July 2014 (issued every 30 minutes, with the page automatically refreshed every 10 minutes)

About weather observations | Map of weather stations | Latest weather observations for QLD | Other Formats
Station Details ID: 029077 Name: BURKETOWN AIRPORT Lat: -17.75 Lon: 139.54 Height: 5.7 m
Data from the previous 72 hours. | See also: Recent months at Burketown Airport
Date/Time
EST
Temp
°C
App
Temp
°C
Dew
Point
Rel
Hum
%
Delta-T
°C
Wind Press
QNH
hPa
Press
MSL
hPa
Rain
since 9 am
mm
Dir
 
Spd
km/h
Gust
km/h
Spd
kts
Gust
kts
30/01:00pm 30.0 25.8 11.0 31 10.9 NE 24 35 13 19 1015.8 - 0.0
30/12:30pm 30.2 26.0 9.7 28 11.5 ENE 22 30 12 16 1016.3 - 0.0
30/12:00pm 29.3 25.3 8.4 27 11.5 E 19 26 10 14 1016.7 1016.6 0.0
30/11:30am 28.1 24.4 7.9 28 10.9 ESE 17 22 9 12 1017.2 - 0.0
30/11:00am 27.7 23.7 8.1 29 10.6 E 19 22 10 12 1017.6 - 0.0
30/10:30am 26.9 23.0 6.9 28 10.6 SE 17 20 9 11 1017.7 - 0.0
30/10:00am 25.6 21.0 6.3 29 10.0 SE 20 26 11 14 1017.7 - 0.0
30/09:30am 24.6 19.2 6.4 31 9.4 SSE 24 30 13 16 1017.8 - 0.0
30/09:00am 23.5 18.5 6.3 33 8.8 SSE 22 30 12 16 1017.6 1017.5 0.0
30/08:30am 20.8 17.3 8.8 46 6.3 S 17 22 9 12 1017.3 - 0.0
30/08:00am 18.8 15.7 9.0 53 5.1 S 15 19 8 10 1017.0 - 0.0
30/07:30am 16.7 13.9 10.1 65 3.5 S 15 17 8 9 1016.9 - 0.0
30/07:00am 16.4 13.8 10.7 69 3.0 S 15 17 8 9 1016.7 - 0.0
30/06:30am 16.3 14.4 11.7 74 2.5 S 13 15 7 8 1016.6 - 0.0
30/06:00am 16.3 14.9 12.1 76 2.3 S 11 13 6 7 1016.5 1016.4 0.0
30/05:30am 16.0 15.0 12.4 79 2.0 SSW 9 11 5 6 1016.3 - 0.0
30/05:00am 16.4 15.1 12.6 78 2.1 SSW 11 11 6 6 1016.2 - 0.0
30/04:30am 16.4 15.3 13.1 81 1.8 SSW 11 13 6 7 1016.2 - 0.0
30/04:00am 16.7 16.1 13.4 81 1.9 SSW 9 11 5 6 1016.3 - 0.0
30/03:30am 17.2 16.0 14.1 82 1.8 SW 13 15 7 8 1016.4 - 0.0
30/03:00am 17.6 16.4 15.0 85 1.5 WSW 15 17 8 9 1016.5 1016.4 0.0
30/02:30am 17.0 16.4 15.7 92 0.8 SW 13 17 7 9 1016.6 - 0.0
30/02:00am 16.3 15.8 14.8 91 0.9 WSW 11 11 6 6 1016.6 - 0.0
30/01:30am 16.5 16.4 14.9 90 0.9 WSW 9 11 5 6 1016.8 - 0.0
30/01:00am 16.6 15.9 14.2 86 1.4 W 11 11 6 6 1016.9 - 0.0
30/12:30am 17.4 17.2 13.7 79 2.1 W 7 9 4 5 1016.9 - 0.0
30/12:00am 17.5 17.2 12.8 74 2.6 WSW 6 7 3 4 1016.9 1016.8 0.0
 
Date/Time
EST
Temp
°C
App
Temp
°C
Dew
Point
Rel
Hum
%
Delta-T
°C
Wind Press
QNH
hPa
Press
MSL
hPa
Rain
since 9 am
mm
Dir
 
Spd
km/h
Gust
km/h
Spd
kts
Gust
kts
29/11:30pm 17.9 18.1 14.2 79 2.1 WSW 6 7 3 4 1017.0 - 0.0
29/11:00pm 18.2 19.3 13.5 74 2.7 CALM 0 0 0 0 1017.2 - 0.0
29/10:30pm 18.3 18.3 14.2 77 2.4 W 7 9 4 5 1017.4 - 0.0
29/10:00pm 18.6 18.3 14.5 77 2.4 W 9 9 5 5 1017.3 - 0.0
29/09:30pm 19.0 18.6 14.1 73 2.8 WNW 9 11 5 6 1017.3 - 0.0
29/09:00pm 19.4 19.7 14.9 75 2.6 NW 7 9 4 5 1017.2 1017.1 0.0
29/08:30pm 20.1 20.2 14.5 70 3.3 NNW 7 9 4 5 1016.9 - 0.0
29/08:00pm 20.4 20.4 14.3 68 3.5 NNW 7 9 4 5 1016.7 - 0.0
29/07:30pm 21.8 21.8 15.2 66 3.9 N 9 11 5 6 1016.5 - 0.0
29/07:00pm 22.9 22.4 15.0 61 4.7 N 11 13 6 7 1016.3 - 0.0
29/06:30pm 24.7 23.2 14.2 52 6.2 N 15 19 8 10 1016.0 - 0.0
29/06:00pm 26.3 24.7 13.8 46 7.4 N 15 20 8 11 1015.9 1015.8 0.0
29/05:30pm 27.1 24.7 13.8 44 7.9 N 19 24 10 13 1015.7 - 0.0
29/05:00pm 27.8 25.7 13.7 42 8.4 NNE 17 24 9 13 1015.6 - 0.0
29/04:30pm 27.8 25.2 13.7 42 8.4 N 20 30 11 16 1015.6 - 0.0
29/04:00pm 28.1 25.8 14.0 42 8.4 NNE 19 26 10 14 1015.7 - 0.0
29/03:30pm 28.3 25.9 13.8 41 8.6 NNE 19 26 10 14 1015.8 - 0.0
29/03:00pm 28.3 26.0 14.2 42 8.5 N 19 28 10 15 1016.0 1015.9 0.0
29/02:30pm 28.8 26.5 14.2 40 8.8 NNE 19 28 10 15 1016.5 - 0.0
29/02:00pm 28.8 26.0 14.2 40 8.8 NNE 22 32 12 17 1016.9 - 0.0
29/01:30pm 28.6 25.6 13.7 40 8.9 NNE 22 32 12 17 1017.3 - 0.0
29/01:00pm 28.6 25.7 12.9 38 9.2 NNE 20 35 11 19 1017.8 - 0.0
29/12:30pm 28.1 25.3 13.2 39 8.8 NNE 20 33 11 18 1018.2 - 0.0
29/12:00pm 28.2 25.1 13.3 40 8.8 NNE 22 28 12 15 1018.4 1018.3 0.0
29/11:30am 28.1 25.0 11.6 36 9.5 ENE 19 28 10 15 1018.7 - 0.0
29/11:00am 27.8 24.5 10.9 35 9.6 E 19 24 10 13 1018.9 - 0.0
29/10:30am 26.7 23.5 10.0 35 9.3 ESE 17 22 9 12 1019.0 - 0.0
29/10:00am 26.2 22.5 9.5 35 9.2 ESE 19 24 10 13 1018.8 - 0.0
29/09:30am 25.0 20.9 8.5 35 8.9 SE 20 24 11 13 1018.6 - 0.0
29/09:00am 23.4 19.5 9.4 41 7.6 SSE 20 28 11 15 1018.5 1018.4 0.0
29/08:30am 20.6 17.6 10.7 53 5.4 SE 17 22 9 12 1018.4 - 0.0
29/08:00am 19.4 16.2 11.4 60 4.4 SSE 19 24 10 13 1018.4 - 0.0
29/07:30am 16.4 15.2 11.6 73 2.6 SSE 9 11 5 6 1017.9 - 0.0
29/07:00am 16.5 15.7 11.6 73 2.7 S 7 7 4 4 1017.5 - 0.0
29/06:30am 16.6 15.9 11.9 74 2.6 S 7 9 4 5 1017.3 - 0.0
29/06:00am 17.2 16.3 11.5 69 3.1 S 7 9 4 5 1017.2 1017.1 0.0
29/05:30am 17.3 16.2 12.0 71 2.9 S 9 11 5 6 1017.2 - 0.0
29/05:00am 17.7 16.2 11.9 69 3.2 S 11 13 6 7 1017.0 - 0.0
29/04:30am 18.5 16.7 12.0 66 3.6 S 13 15 7 8 1016.8 - 0.0
29/04:00am 19.1 17.1 12.6 66 3.6 SSW 15 19 8 10 1016.8 - 0.0
29/03:30am 18.6 16.6 12.6 68 3.4 SSW 15 17 8 9 1016.7 - 0.0
29/03:00am 18.6 16.7 13.0 70 3.1 SW 15 17 8 9 1016.8 1016.7 0.0
29/02:30am 17.6 16.1 13.1 75 2.5 SSW 13 15 7 8 1017.1 - 0.0
29/02:00am 18.1 17.2 12.5 70 3.1 SSW 9 11 5 6 1017.2 - 0.0
29/01:30am 18.2 17.3 12.6 70 3.1 SSW 9 9 5 5 1017.3 - 0.0
29/01:00am 18.5 17.4 13.1 71 3.0 SW 11 11 6 6 1017.5 - 0.0
29/12:30am 18.3 17.8 13.8 75 2.6 SW 9 13 5 7 1017.6 - 0.0
29/12:00am 19.9 19.2 13.1 65 3.9 SW 9 9 5 5 1017.5 1017.4 0.0
 
Date/Time
EST
Temp
°C
App
Temp
°C
Dew
Point
Rel
Hum
%
Delta-T
°C
Wind Press
QNH
hPa
Press
MSL
hPa
Rain
since 9 am
mm
Dir
 
Spd
km/h
Gust
km/h
Spd
kts
Gust
kts
28/11:30pm 19.7 19.5 13.6 68 3.5 WSW 7 9 4 5 1017.5 - 0.0
28/11:00pm 19.3 17.9 13.5 69 3.3 WSW 13 15 7 8 1017.4 - 0.0
28/10:30pm 19.4 18.1 13.8 70 3.2 WSW 13 13 7 7 1017.5 - 0.0
28/10:00pm 19.5 18.5 13.4 68 3.5 W 11 13 6 7 1017.5 - 0.0
28/09:30pm 20.1 19.6 13.8 67 3.6 W 9 9 5 5 1017.6 - 0.0
28/09:00pm 20.0 19.7 13.2 65 3.9 WNW 7 9 4 5 1017.3 1017.2 0.0
28/08:30pm 20.5 20.1 13.0 62 4.3 WNW 7 9 4 5 1017.2 - 0.0
28/08:00pm 21.3 20.2 13.2 60 4.6 NNW 11 13 6 7 1016.9 - 0.0
28/07:30pm 22.3 21.4 13.6 58 5.0 N 11 11 6 6 1016.6 - 0.0
28/07:00pm 23.5 22.6 13.7 54 5.7 N 11 15 6 8 1016.4 - 0.0
28/06:30pm 25.2 23.5 13.7 49 6.8 N 15 17 8 9 1016.0 - 0.0
28/06:00pm 26.9 24.6 14.0 45 7.7 N 19 22 10 12 1015.5 1015.4 0.0
28/05:30pm 27.8 25.4 13.7 42 8.4 N 19 22 10 12 1015.3 - 0.0
28/05:00pm 28.9 26.8 13.6 39 9.1 N 17 26 9 14 1015.3 - 0.0
28/04:30pm 29.4 27.8 12.8 36 9.8 N 13 22 7 12 1015.1 - 0.0
28/04:00pm 29.8 28.7 13.1 36 9.9 N 11 17 6 9 1015.2 - 0.0
28/03:30pm 29.2 26.9 11.7 34 10.1 NNE 15 22 8 12 1015.4 - 0.0
28/03:00pm 29.7 27.4 13.0 35 9.9 N 17 26 9 14 1015.7 1015.6 0.0
28/02:30pm 29.6 26.8 12.5 35 10.0 NNE 19 24 10 13 1016.1 - 0.0
28/02:00pm 29.3 26.3 12.7 36 9.8 NNE 20 30 11 16 1016.6 - 0.0
28/01:30pm 29.6 27.2 12.5 35 10.0 NNE 17 28 9 15 1017.1 - 0.0
28/01:00pm 29.0 26.3 13.6 38 9.2 ENE 20 32 11 17 1017.7 - 0.0
28/12:30pm 28.2 26.4 14.4 42 8.3 NE 17 33 9 18 1018.1 - 0.0
28/12:00pm 28.4 26.1 14.6 43 8.3 NE 20 30 11 16 1018.5 1018.4 0.0
28/11:30am 28.1 26.0 15.1 45 7.9 ENE 20 28 11 15 1018.8 - 0.0
28/11:00am 27.6 26.0 13.9 43 8.2 ENE 15 22 8 12 1019.2 - 0.0
28/10:30am 26.8 25.1 13.5 44 7.8 ENE 15 20 8 11 1019.5 - 0.0
28/10:00am 25.9 23.8 12.4 43 7.8 ESE 15 22 8 12 1019.7 - 0.0
28/09:30am 24.8 21.1 9.5 38 8.4 SE 19 24 10 13 1019.6 - 0.0
28/09:00am 23.4 19.3 7.9 37 8.1 SSE 19 24 10 13 1019.5 1019.4 0.0
28/08:30am 21.5 17.1 7.3 40 7.3 SSE 20 26 11 14 1019.3 - 0.0
28/08:00am 20.4 17.1 8.1 45 6.4 SSE 15 20 8 11 1018.9 - 0.0
28/07:30am 18.7 15.3 7.8 49 5.6 SSE 15 19 8 10 1018.6 - 0.0
28/07:00am 18.2 14.5 7.9 51 5.3 SSE 17 20 9 11 1018.3 - 0.0
28/06:30am 17.9 14.1 7.6 51 5.2 SSE 17 20 9 11 1017.9 - 0.0
28/06:00am 17.9 14.2 7.9 52 5.1 SSE 17 20 9 11 1017.6 1017.5 0.0
28/05:30am 17.2 14.2 7.8 54 4.8 SSE 13 15 7 8 1017.2 - 0.0
28/05:00am 17.7 14.7 7.7 52 5.1 SSE 13 13 7 7 1017.0 - 0.0
28/04:30am 18.2 14.9 7.9 51 5.3 S 15 17 8 9 1016.9 - 0.0
28/04:00am 17.9 14.9 7.9 52 5.1 SSE 13 13 7 7 1016.8 - 0.0
28/03:30am 19.2 15.9 7.9 48 5.8 SSE 15 17 8 9 1016.9 - 0.0
28/03:00am 20.0 16.8 8.4 47 6.0 SSE 15 17 8 9 1016.8 1016.7 0.0
28/02:30am 19.2 16.2 7.9 48 5.8 SSE 13 15 7 8 1016.9 - 0.0
28/02:00am 20.4 17.5 8.1 45 6.4 SSE 13 15 7 8 1017.1 - 0.0
28/01:30am 21.5 18.2 8.1 42 7.0 S 15 17 8 9 1017.0 - 0.0
28/01:00am 22.3 18.7 8.4 41 7.3 S 17 22 9 12 1017.1 - 0.0
28/12:30am 22.3 18.6 8.1 40 7.5 S 17 20 9 11 1017.4 - 0.0
28/12:00am 22.5 18.9 8.2 40 7.5 S 17 20 9 11 1017.6 1017.5 0.0
 
Date/Time
EST
Temp
°C
App
Temp
°C
Dew
Point
Rel
Hum
%
Delta-T
°C
Wind Press
QNH
hPa
Press
MSL
hPa
Rain
since 9 am
mm
Dir
 
Spd
km/h
Gust
km/h
Spd
kts
Gust
kts
27/11:30pm 23.1 19.4 8.0 38 7.9 S 17 20 9 11 1017.7 - 0.0
27/11:00pm 23.2 19.5 8.1 38 8.0 S 17 20 9 11 1017.7 - 0.0
27/10:30pm 23.1 19.8 8.0 38 7.9 S 15 19 8 10 1017.9 - 0.0
27/10:00pm 22.9 19.6 8.2 39 7.8 S 15 17 8 9 1017.9 - 0.0
27/09:30pm 23.3 20.1 8.6 39 7.8 S 15 17 8 9 1018.1 - 0.0
27/09:00pm 22.0 19.2 8.5 42 7.1 S 13 13 7 7 1018.0 1017.9 0.0
27/08:30pm 23.2 20.8 8.5 39 7.8 S 11 13 6 7 1017.8 - 0.0
27/08:00pm 24.0 21.6 8.8 38 8.2 SSE 11 13 6 7 1017.4 - 0.0
27/07:30pm 24.6 21.8 8.5 36 8.6 SSE 13 15 7 8 1017.0 - 0.0
27/07:00pm 26.3 23.9 8.8 33 9.5 SE 11 13 6 7 1016.7 - 0.0
27/06:30pm 28.3 25.5 8.6 29 10.8 SSE 13 17 7 9 1016.3 - 0.0
27/06:00pm 30.0 26.6 9.0 27 11.7 SE 17 24 9 13 1016.2 1016.1 0.0
27/05:30pm 30.6 26.6 8.9 26 12.1 SE 20 28 11 15 1016.0 - 0.0
27/05:00pm 31.1 27.4 9.3 26 12.2 SE 19 26 10 14 1015.9 - 0.0
27/04:30pm 31.7 27.0 9.3 25 12.6 SE 24 39 13 21 1015.9 - 0.0
27/04:00pm 31.2 26.8 8.8 25 12.5 SE 22 35 12 19 1015.9 - 0.0
27/03:30pm 30.8 26.6 9.6 27 12.0 SE 22 32 12 17 1015.9 - 0.0
27/03:00pm 31.7 28.2 11.0 28 12.0 SE 20 32 11 17 1016.3 1016.2 0.0
27/02:30pm 30.6 27.6 10.5 29 11.5 S 17 30 9 16 1016.8 - 0.0
27/02:00pm 30.8 27.2 11.7 31 11.1 E 22 28 12 15 1017.3 - 0.0
27/01:30pm 30.2 25.9 10.7 30 11.2 SSE 24 33 13 18 1018.0 - 0.0

Other Formats:

Comma delimited format used in spreadsheet applications
http://www.bom.gov.au/fwo/IDQ60801/IDQ60801.94260.axf

JavaScript Object Notation format (JSON) in row-major order
http://www.bom.gov.au/fwo/IDQ60801/IDQ60801.94260.json